createdAt,value
2019-03-04T00:00:47.793Z,11.75
2019-03-04T00:01:47.673Z,11.88
2019-03-04T00:02:47.662Z,11.88
2019-03-04T00:03:47.612Z,11.83
2019-03-04T00:04:47.595Z,11.85
2019-03-04T00:05:47.558Z,11.83
2019-03-04T00:06:47.496Z,11.76
2019-03-04T00:07:47.485Z,11.83
2019-03-04T00:08:47.410Z,11.83
2019-03-04T00:09:47.376Z,11.79
2019-03-04T00:10:47.411Z,11.76
2019-03-04T00:11:47.294Z,11.72
2019-03-04T00:12:47.278Z,11.78
2019-03-04T00:13:47.247Z,11.75
2019-03-04T00:14:47.216Z,11.75
2019-03-04T00:15:47.189Z,11.64
2019-03-04T00:16:47.173Z,11.69
2019-03-04T00:17:47.060Z,11.65
2019-03-04T00:18:47.042Z,11.64
2019-03-04T00:19:47.049Z,11.58
2019-03-04T00:20:46.955Z,11.62
2019-03-04T00:21:46.957Z,11.64
2019-03-04T00:22:46.929Z,11.62
2019-03-04T00:23:46.884Z,11.70
2019-03-04T00:24:46.833Z,11.47
2019-03-04T00:25:46.837Z,11.47
2019-03-04T00:26:46.736Z,11.51
2019-03-04T00:27:46.747Z,11.44
2019-03-04T00:28:46.681Z,11.44
2019-03-04T00:29:46.690Z,11.52
2019-03-04T00:30:46.602Z,11.55
2019-03-04T00:31:46.558Z,11.47
2019-03-04T00:32:46.535Z,11.39
2019-03-04T00:33:46.603Z,11.60
2019-03-04T00:34:46.473Z,11.47
2019-03-04T00:35:46.471Z,11.54
2019-03-04T00:36:46.373Z,11.44
2019-03-04T00:37:46.354Z,11.42
2019-03-04T00:38:46.443Z,11.49
2019-03-04T00:39:46.330Z,11.37
2019-03-04T00:40:46.262Z,11.47
2019-03-04T00:41:46.182Z,11.36
2019-03-04T00:42:46.162Z,11.28
2019-03-04T00:43:46.114Z,11.24
2019-03-04T00:44:46.080Z,11.33
2019-03-04T00:45:46.039Z,11.27
2019-03-04T00:46:46.019Z,11.27
2019-03-04T00:47:46.065Z,11.19
2019-03-04T00:48:45.925Z,11.24
2019-03-04T00:49:45.898Z,11.15
2019-03-04T00:50:45.877Z,11.19
2019-03-04T00:51:45.838Z,11.11
2019-03-04T00:52:45.786Z,11.06
2019-03-04T00:53:45.755Z,11.18
2019-03-04T00:54:45.755Z,11.21
2019-03-04T00:55:45.698Z,11.09
2019-03-04T00:56:45.663Z,11.04
2019-03-04T00:57:45.636Z,11.04
2019-03-04T00:58:45.571Z,10.97
2019-03-04T00:59:45.520Z,10.86
2019-03-04T01:00:45.485Z,10.84
2019-03-04T01:01:45.492Z,10.82
2019-03-04T01:02:45.438Z,10.94
2019-03-04T01:03:45.430Z,10.85
2019-03-04T01:04:45.338Z,10.74
2019-03-04T01:05:45.315Z,10.86
2019-03-04T01:06:45.267Z,10.89
2019-03-04T01:07:45.256Z,10.84
2019-03-04T01:08:45.195Z,10.76
2019-03-04T01:09:45.142Z,10.84
2019-03-04T01:10:45.121Z,10.71
2019-03-04T01:11:45.085Z,10.92
2019-03-04T01:12:45.030Z,10.86
2019-03-04T01:13:45.053Z,10.81
2019-03-04T01:14:44.998Z,10.79
2019-03-04T01:15:44.965Z,10.91
2019-03-04T01:16:44.919Z,10.88
2019-03-04T01:17:44.862Z,10.91
2019-03-04T01:18:44.823Z,10.88
2019-03-04T01:19:44.790Z,10.89
2019-03-04T01:20:44.739Z,10.86
2019-03-04T01:21:44.725Z,10.86
2019-03-04T01:22:44.798Z,10.79
2019-03-04T01:23:44.640Z,10.78
2019-03-04T01:24:44.607Z,10.73
2019-03-04T01:25:44.583Z,10.67
2019-03-04T01:26:44.522Z,10.68
2019-03-04T01:27:44.519Z,10.76
2019-03-04T01:28:44.450Z,10.71
2019-03-04T01:29:44.436Z,10.85
2019-03-04T01:30:44.409Z,10.85
2019-03-04T01:31:44.345Z,10.79
2019-03-04T01:32:44.306Z,10.86
2019-03-04T01:33:44.273Z,11.14
2019-03-04T01:34:44.422Z,11.11
2019-03-04T01:35:44.195Z,11.22
2019-03-04T01:36:44.164Z,11.14
2019-03-04T01:37:44.110Z,11.02
2019-03-04T01:38:44.125Z,11.18
2019-03-04T01:39:44.212Z,11.14
2019-03-04T01:40:44.023Z,11.22
2019-03-04T01:41:43.952Z,11.35
2019-03-04T01:42:43.942Z,11.42
2019-03-04T01:43:50.420Z,11.37
2019-03-04T01:44:43.845Z,11.44
2019-03-04T01:45:43.874Z,11.60
2019-03-04T01:46:43.837Z,11.67
2019-03-04T01:47:43.834Z,11.69
2019-03-04T01:48:43.722Z,11.76
2019-03-04T01:49:43.657Z,11.58
2019-03-04T01:50:43.637Z,11.58
2019-03-04T01:51:43.614Z,11.49
2019-03-04T01:52:43.553Z,11.43
2019-03-04T01:53:46.446Z,11.40
2019-03-04T01:54:43.649Z,11.40
2019-03-04T01:55:43.438Z,11.42
2019-03-04T01:56:43.396Z,11.22
2019-03-04T01:57:43.373Z,11.19
2019-03-04T01:58:43.392Z,11.18
2019-03-04T01:59:43.315Z,11.07
2019-03-04T02:00:43.445Z,11.06
2019-03-04T02:01:43.247Z,11.14
2019-03-04T02:02:43.234Z,11.07
2019-03-04T02:03:43.162Z,10.99
2019-03-04T02:04:43.129Z,11.07
2019-03-04T02:05:43.061Z,11.04
2019-03-04T02:06:43.025Z,11.10
2019-03-04T02:07:42.992Z,10.99
2019-03-04T02:08:42.983Z,10.89
2019-03-04T02:09:42.920Z,10.85
2019-03-04T02:10:42.914Z,10.73
2019-03-04T02:11:42.937Z,10.74
2019-03-04T02:12:42.807Z,10.84
2019-03-04T02:13:42.805Z,10.97
2019-03-04T02:14:42.786Z,10.89
2019-03-04T02:15:42.747Z,10.88
2019-03-04T02:16:42.708Z,10.78
2019-03-04T02:17:42.610Z,10.78
2019-03-04T02:18:42.582Z,10.76
2019-03-04T02:19:42.577Z,10.88
2019-03-04T02:20:42.526Z,10.73
2019-03-04T02:21:42.604Z,10.71
2019-03-04T02:22:42.489Z,10.68
2019-03-04T02:23:42.397Z,10.64
2019-03-04T02:24:42.387Z,10.81
2019-03-04T02:25:42.411Z,10.81
2019-03-04T02:26:42.316Z,10.74
2019-03-04T02:27:42.249Z,10.73
2019-03-04T02:28:42.222Z,10.73
2019-03-04T02:29:42.194Z,10.79
2019-03-04T02:30:42.152Z,10.66
2019-03-04T02:31:42.142Z,10.55
2019-03-04T02:32:42.082Z,10.55
2019-03-04T02:33:42.119Z,10.52
2019-03-04T02:34:41.994Z,10.60
2019-03-04T02:35:41.977Z,10.61
2019-03-04T02:36:41.935Z,10.63
2019-03-04T02:37:41.918Z,10.56
2019-03-04T02:38:41.878Z,10.59
2019-03-04T02:39:41.803Z,10.64
2019-03-04T02:40:41.794Z,10.53
2019-03-04T02:41:41.774Z,10.56
2019-03-04T02:42:41.708Z,10.63
2019-03-04T02:43:41.676Z,10.52
2019-03-04T02:44:41.637Z,10.55
2019-03-04T02:45:41.586Z,10.48
2019-03-04T02:46:41.551Z,10.32
2019-03-04T02:47:41.547Z,10.23
2019-03-04T02:48:41.495Z,10.30
2019-03-04T02:49:41.448Z,10.40
2019-03-04T02:50:41.397Z,10.52
2019-03-04T02:51:41.379Z,10.60
2019-03-04T02:52:41.320Z,10.63
2019-03-04T02:53:41.289Z,10.63
2019-03-04T02:54:41.260Z,10.66
2019-03-04T02:55:41.241Z,10.74
2019-03-04T02:56:41.177Z,10.67
2019-03-04T02:57:41.125Z,10.73
2019-03-04T02:58:41.118Z,10.81
2019-03-04T02:59:41.054Z,10.78
2019-03-04T03:00:41.019Z,10.73
2019-03-04T03:01:41.069Z,10.79
2019-03-04T03:02:40.997Z,10.73
2019-03-04T03:03:40.934Z,10.78
2019-03-04T03:04:40.872Z,10.70
2019-03-04T03:05:40.865Z,10.76
2019-03-04T03:06:40.792Z,10.74
2019-03-04T03:07:40.884Z,10.76
2019-03-04T03:08:40.720Z,10.70
2019-03-04T03:09:40.710Z,10.81
2019-03-04T03:10:40.847Z,10.71
2019-03-04T03:11:40.618Z,10.73
2019-03-04T03:12:40.567Z,10.73
2019-03-04T03:13:40.545Z,10.68
2019-03-04T03:14:40.651Z,10.88
2019-03-04T03:15:40.452Z,11.10
2019-03-04T03:16:40.441Z,11.03
2019-03-04T03:17:40.378Z,11.19
2019-03-04T03:18:40.357Z,11.22
2019-03-04T03:19:40.314Z,11.17
2019-03-04T03:20:40.302Z,11.21
2019-03-04T03:21:40.299Z,11.18
2019-03-04T03:22:40.207Z,11.24
2019-03-04T03:23:40.139Z,11.21
2019-03-04T03:24:40.127Z,11.29
2019-03-04T03:25:40.119Z,11.36
2019-03-04T03:26:40.105Z,11.28
2019-03-04T03:27:40.009Z,11.40
2019-03-04T03:28:40.020Z,11.32
2019-03-04T03:29:39.931Z,11.28
2019-03-04T03:30:39.900Z,11.37
2019-03-04T03:31:39.882Z,11.40
2019-03-04T03:32:39.829Z,11.39
2019-03-04T03:33:39.793Z,11.25
2019-03-04T03:34:39.781Z,11.24
2019-03-04T03:35:39.778Z,11.39
2019-03-04T03:36:39.668Z,11.32
2019-03-04T03:37:39.624Z,11.21
2019-03-04T03:38:39.603Z,11.28
2019-03-04T03:39:39.571Z,11.24
2019-03-04T03:40:39.538Z,11.40
2019-03-04T03:41:39.498Z,11.35
2019-03-04T03:42:39.503Z,11.39
2019-03-04T03:43:39.455Z,11.37
2019-03-04T03:44:39.369Z,11.39
2019-03-04T03:45:39.322Z,11.42
2019-03-04T03:46:39.341Z,11.40
2019-03-04T03:47:39.297Z,11.35
2019-03-04T03:48:39.232Z,11.37
2019-03-04T03:49:39.185Z,11.35
2019-03-04T03:50:39.170Z,11.35
2019-03-04T03:51:39.117Z,11.36
2019-03-04T03:52:39.083Z,11.27
2019-03-04T03:53:39.077Z,11.17
2019-03-04T03:54:39.056Z,11.19
2019-03-04T03:55:38.975Z,11.19
2019-03-04T03:56:38.961Z,11.24
2019-03-04T03:57:38.889Z,11.37
2019-03-04T03:58:38.885Z,11.42
2019-03-04T03:59:38.829Z,11.43
2019-03-04T04:00:38.781Z,11.42
2019-03-04T04:01:38.748Z,11.29
2019-03-04T04:02:38.747Z,11.25
2019-03-04T04:03:38.725Z,11.29
2019-03-04T04:04:38.793Z,11.36
2019-03-04T04:05:38.595Z,11.22
2019-03-04T04:06:38.559Z,11.17
2019-03-04T04:07:38.513Z,11.22
2019-03-04T04:08:38.525Z,11.17
2019-03-04T04:09:38.454Z,11.14
2019-03-04T04:10:38.423Z,11.09
2019-03-04T04:11:38.401Z,11.17
2019-03-04T04:12:38.345Z,11.09
2019-03-04T04:13:38.318Z,11.07
2019-03-04T04:14:38.247Z,11.07
2019-03-04T04:15:38.336Z,11.10
2019-03-04T04:16:38.187Z,11.11
2019-03-04T04:17:38.151Z,11.10
2019-03-04T04:18:38.113Z,11.06
2019-03-04T04:19:38.087Z,11.18
2019-03-04T04:20:38.043Z,11.36
2019-03-04T04:21:38.014Z,11.39
2019-03-04T04:22:37.986Z,11.17
2019-03-04T04:23:37.922Z,11.19
2019-03-04T04:24:37.985Z,11.04
2019-03-04T04:25:37.850Z,11.19
2019-03-04T04:26:37.834Z,11.24
2019-03-04T04:27:37.779Z,11.28
2019-03-04T04:28:37.753Z,11.18
2019-03-04T04:29:37.788Z,11.25
2019-03-04T04:30:37.691Z,11.37
2019-03-04T04:31:37.635Z,11.43
2019-03-04T04:32:37.581Z,11.52
2019-03-04T04:33:37.574Z,11.60
2019-03-04T04:34:37.504Z,11.65
2019-03-04T04:35:37.490Z,11.65
2019-03-04T04:36:37.542Z,11.64
2019-03-04T04:37:37.393Z,11.64
2019-03-04T04:38:37.378Z,11.70
2019-03-04T04:39:37.363Z,11.69
2019-03-04T04:40:37.291Z,11.86
2019-03-04T04:41:37.459Z,11.73
2019-03-04T04:42:37.214Z,11.70
2019-03-04T04:43:37.218Z,11.61
2019-03-04T04:44:37.157Z,11.65
2019-03-04T04:45:37.109Z,11.67
2019-03-04T04:46:37.077Z,11.72
2019-03-04T04:47:37.052Z,11.76
2019-03-04T04:48:37.005Z,11.78
2019-03-04T04:49:36.960Z,11.91
2019-03-04T04:50:36.917Z,11.91
2019-03-04T04:51:36.902Z,12.05
2019-03-04T04:52:36.870Z,11.99
2019-03-04T04:53:36.844Z,12.14
2019-03-04T04:54:36.903Z,12.17
2019-03-04T04:55:36.754Z,12.10
2019-03-04T04:56:36.708Z,12.14
2019-03-04T04:57:36.683Z,12.09
2019-03-04T04:58:36.634Z,12.01
2019-03-04T04:59:36.634Z,11.91
2019-03-04T05:00:36.613Z,11.95
2019-03-04T05:01:36.521Z,11.83
2019-03-04T05:02:36.494Z,11.88
2019-03-04T05:03:36.523Z,11.86
2019-03-04T05:04:36.513Z,11.90
2019-03-04T05:05:36.363Z,12.01
2019-03-04T05:06:36.363Z,11.94
2019-03-04T05:07:36.322Z,11.85
2019-03-04T05:08:36.263Z,11.75
2019-03-04T05:09:36.291Z,11.75
2019-03-04T05:10:36.206Z,11.78
2019-03-04T05:11:36.300Z,11.86
2019-03-04T05:12:36.232Z,11.76
2019-03-04T05:13:36.078Z,11.76
2019-03-04T05:14:36.028Z,11.79
2019-03-04T05:15:36.264Z,11.86
2019-03-04T05:16:35.976Z,11.88
2019-03-04T05:17:35.934Z,11.94
2019-03-04T05:18:35.888Z,12.10
2019-03-04T05:19:35.862Z,12.13
2019-03-04T05:20:35.815Z,12.14
2019-03-04T05:21:35.805Z,12.13
2019-03-04T05:22:35.766Z,12.09
2019-03-04T05:23:35.704Z,12.09
2019-03-04T05:24:35.668Z,11.99
2019-03-04T05:25:35.634Z,12.07
2019-03-04T05:26:35.603Z,12.14
2019-03-04T05:27:35.558Z,12.13
2019-03-04T05:28:35.526Z,12.14
2019-03-04T05:29:35.499Z,12.20
2019-03-04T05:30:35.455Z,12.19
2019-03-04T05:31:35.440Z,12.20
2019-03-04T05:32:35.378Z,11.99
2019-03-04T05:33:35.340Z,11.99
2019-03-04T05:34:35.317Z,12.17
2019-03-04T05:35:35.274Z,12.16
2019-03-04T05:36:35.233Z,12.14
2019-03-04T05:37:35.227Z,12.09
2019-03-04T05:38:35.174Z,12.16
2019-03-04T05:39:35.114Z,11.99
2019-03-04T05:40:35.083Z,12.12
2019-03-04T05:41:35.055Z,12.12
2019-03-04T05:42:35.083Z,12.10
2019-03-04T05:43:34.996Z,12.04
2019-03-04T05:44:34.941Z,12.12
2019-03-04T05:45:34.922Z,12.05
2019-03-04T05:46:34.896Z,12.12
2019-03-04T05:47:34.846Z,12.19
2019-03-04T05:48:34.807Z,12.34
2019-03-04T05:49:34.757Z,12.32
2019-03-04T05:50:34.727Z,12.31
2019-03-04T05:51:34.697Z,12.34
2019-03-04T05:52:34.637Z,12.38
2019-03-04T05:53:34.603Z,12.38
2019-03-04T05:54:34.573Z,12.53
2019-03-04T05:55:34.609Z,12.59
2019-03-04T05:56:34.505Z,12.64
2019-03-04T05:57:34.486Z,12.64
2019-03-04T05:58:34.439Z,12.90
2019-03-04T05:59:34.458Z,12.95
2019-03-04T06:00:34.349Z,13.01
2019-03-04T06:01:34.332Z,13.11
2019-03-04T06:02:34.294Z,13.07
2019-03-04T06:03:34.279Z,13.19
2019-03-04T06:04:34.230Z,13.20
2019-03-04T06:05:34.176Z,13.17
2019-03-04T06:06:34.148Z,13.29
2019-03-04T06:07:34.329Z,13.28
2019-03-04T06:08:34.133Z,13.26
2019-03-04T06:09:34.046Z,13.44
2019-03-04T06:10:34.008Z,13.39
2019-03-04T06:11:33.964Z,13.42
2019-03-04T06:12:34.098Z,13.39
2019-03-04T06:13:33.923Z,13.41
2019-03-04T06:14:33.860Z,13.44
2019-03-04T06:15:33.882Z,13.44
2019-03-04T06:16:33.826Z,13.51
2019-03-04T06:17:33.790Z,13.46
2019-03-04T06:18:33.799Z,13.62
2019-03-04T06:19:33.828Z,13.49
2019-03-04T06:20:33.657Z,13.45
2019-03-04T06:21:33.625Z,13.23
2019-03-04T06:22:33.553Z,13.22
2019-03-04T06:23:33.656Z,13.22
2019-03-04T06:24:33.513Z,13.07
2019-03-04T06:25:33.523Z,13.25
2019-03-04T06:26:33.507Z,13.17
2019-03-04T06:27:33.394Z,13.05
2019-03-04T06:28:33.365Z,13.03
2019-03-04T06:29:33.369Z,12.97
2019-03-04T06:30:33.279Z,12.87
2019-03-04T06:31:33.243Z,12.78
2019-03-04T06:32:33.215Z,12.79
2019-03-04T06:33:33.168Z,12.86
2019-03-04T06:34:33.154Z,12.74
2019-03-04T06:35:33.108Z,12.89
2019-03-04T06:36:33.062Z,12.92
2019-03-04T06:37:33.037Z,13.00
2019-03-04T06:38:32.978Z,13.10
2019-03-04T06:39:32.949Z,13.00
2019-03-04T06:40:32.990Z,12.93
2019-03-04T06:41:32.891Z,12.89
2019-03-04T06:42:32.850Z,12.87
2019-03-04T06:43:32.847Z,12.92
2019-03-04T06:44:32.794Z,12.95
2019-03-04T06:45:32.736Z,12.87
2019-03-04T06:46:32.717Z,12.87
2019-03-04T06:47:32.702Z,12.87
2019-03-04T06:48:32.644Z,12.82
2019-03-04T06:49:32.600Z,12.89
2019-03-04T06:50:32.563Z,12.86
2019-03-04T06:51:32.596Z,12.85
2019-03-04T06:52:32.527Z,12.96
2019-03-04T06:53:32.561Z,12.96
2019-03-04T06:54:32.441Z,12.97
2019-03-04T06:55:32.380Z,12.87
2019-03-04T06:56:32.359Z,12.86
2019-03-04T06:57:32.334Z,12.83
2019-03-04T06:58:32.288Z,12.67
2019-03-04T06:59:32.276Z,12.59
2019-03-04T07:00:32.226Z,12.64
2019-03-04T07:01:32.181Z,12.67
2019-03-04T07:02:32.166Z,12.46
2019-03-04T07:03:32.116Z,12.67
2019-03-04T07:04:32.058Z,12.67
2019-03-04T07:05:32.029Z,12.65
2019-03-04T07:06:32.006Z,12.67
2019-03-04T07:07:31.959Z,12.68
2019-03-04T07:08:32.004Z,12.62
2019-03-04T07:09:31.903Z,12.71
2019-03-04T07:10:31.861Z,12.67
2019-03-04T07:11:31.818Z,12.68
2019-03-04T07:12:31.795Z,12.77
2019-03-04T07:13:31.751Z,12.77
2019-03-04T07:14:32.427Z,12.87
2019-03-04T07:15:31.680Z,12.87
2019-03-04T07:16:32.210Z,12.92
2019-03-04T07:17:31.608Z,12.90
2019-03-04T07:18:31.644Z,12.92
2019-03-04T07:19:31.539Z,12.87
2019-03-04T07:20:31.518Z,12.83
2019-03-04T07:21:31.467Z,12.72
2019-03-04T07:22:31.453Z,12.65
2019-03-04T07:23:31.382Z,12.62
2019-03-04T07:24:31.367Z,12.74
2019-03-04T07:25:31.352Z,12.65
2019-03-04T07:26:31.290Z,12.77
2019-03-04T07:27:31.251Z,12.72
2019-03-04T07:28:31.213Z,12.75
2019-03-04T07:29:31.222Z,12.82
2019-03-04T07:30:31.169Z,12.83
2019-03-04T07:31:31.107Z,12.72
2019-03-04T07:32:31.137Z,12.85
2019-03-04T07:33:31.157Z,12.92
2019-03-04T07:34:31.054Z,12.95
2019-03-04T07:35:31.071Z,13.03
2019-03-04T07:36:31.072Z,13.01
2019-03-04T07:37:30.894Z,13.11
2019-03-04T07:38:30.876Z,13.15
2019-03-04T07:39:30.853Z,13.29
2019-03-04T07:40:30.807Z,13.70
2019-03-04T07:41:30.763Z,14.28
2019-03-04T07:42:31.359Z,14.65
2019-03-04T07:43:30.680Z,15.07
2019-03-04T07:44:30.660Z,15.07
2019-03-04T07:45:30.705Z,14.98
2019-03-04T07:46:30.616Z,15.01
2019-03-04T07:47:30.547Z,14.94
2019-03-04T07:48:30.517Z,14.80
2019-03-04T07:49:30.504Z,14.91
2019-03-04T07:50:30.465Z,15.38
2019-03-04T07:51:30.590Z,16.00
2019-03-04T07:52:30.665Z,16.41
2019-03-04T07:53:30.328Z,16.91
2019-03-04T07:54:30.342Z,17.06
2019-03-04T07:55:30.401Z,17.12
2019-03-04T07:56:30.316Z,16.68
2019-03-04T07:57:30.303Z,16.64
2019-03-04T07:58:30.197Z,16.97
2019-03-04T07:59:30.186Z,16.93
2019-03-04T08:00:30.118Z,16.93
2019-03-04T08:01:30.078Z,16.64
2019-03-04T08:02:30.067Z,16.53
2019-03-04T08:03:30.138Z,16.67
2019-03-04T08:04:30.027Z,16.78
2019-03-04T08:05:29.985Z,16.89
2019-03-04T08:06:29.984Z,17.30
2019-03-04T08:07:29.907Z,17.71
2019-03-04T08:08:29.904Z,17.87
2019-03-04T08:09:29.888Z,18.14
2019-03-04T08:10:29.842Z,18.25
2019-03-04T08:11:29.807Z,17.82
2019-03-04T08:12:29.786Z,17.79
2019-03-04T08:13:29.746Z,18.30
2019-03-04T08:14:29.725Z,18.25
2019-03-04T08:15:29.723Z,18.12
2019-03-04T08:16:29.849Z,17.99
2019-03-04T08:17:29.662Z,17.82
2019-03-04T08:18:29.714Z,17.26
2019-03-04T08:19:29.711Z,17.22
2019-03-04T08:20:29.559Z,17.15
2019-03-04T08:21:29.530Z,16.70
2019-03-04T08:22:29.538Z,16.78
2019-03-04T08:23:29.491Z,16.42
2019-03-04T08:24:29.457Z,16.35
2019-03-04T08:25:29.624Z,16.27
2019-03-04T08:26:29.450Z,16.12
2019-03-04T08:27:29.475Z,15.82
2019-03-04T08:28:29.487Z,16.05
2019-03-04T08:29:29.346Z,16.05
2019-03-04T08:30:29.301Z,15.87
2019-03-04T08:31:29.282Z,15.74
2019-03-04T08:32:29.253Z,15.71
2019-03-04T08:33:29.328Z,15.50
2019-03-04T08:34:31.320Z,15.28
2019-03-04T08:35:29.311Z,15.17
2019-03-04T08:36:29.126Z,15.10
2019-03-04T08:37:29.095Z,14.88
2019-03-04T08:38:29.095Z,14.62
2019-03-04T08:39:29.099Z,14.60
2019-03-04T08:40:29.015Z,14.42
2019-03-04T08:41:28.982Z,14.37
2019-03-04T08:42:28.945Z,14.39
2019-03-04T08:43:28.943Z,14.35
2019-03-04T08:44:31.060Z,14.27
2019-03-04T08:45:28.866Z,14.28
2019-03-04T08:46:28.841Z,14.33
2019-03-04T08:47:28.810Z,14.35
2019-03-04T08:48:28.763Z,14.42
2019-03-04T08:49:28.806Z,14.40
2019-03-04T08:50:28.707Z,14.52
2019-03-04T08:51:28.786Z,14.61
2019-03-04T08:52:28.823Z,14.65
2019-03-04T08:53:30.871Z,14.81
2019-03-04T08:54:28.593Z,15.13
2019-03-04T08:55:28.550Z,15.03
2019-03-04T08:56:28.521Z,15.03
2019-03-04T08:57:28.491Z,14.99
2019-03-04T08:58:28.451Z,15.03
2019-03-04T08:59:28.588Z,15.07
2019-03-04T09:00:28.396Z,15.11
2019-03-04T09:01:28.353Z,15.20
2019-03-04T09:02:28.383Z,15.07
2019-03-04T09:03:28.472Z,15.02
2019-03-04T09:04:28.292Z,15.01
2019-03-04T09:05:28.231Z,15.07
2019-03-04T09:06:28.189Z,14.99
2019-03-04T09:07:28.329Z,14.92
2019-03-04T09:08:28.129Z,14.72
2019-03-04T09:09:28.097Z,14.80
2019-03-04T09:10:28.043Z,14.70
2019-03-04T09:11:28.052Z,14.61
2019-03-04T09:12:28.153Z,14.57
2019-03-04T09:13:27.969Z,14.47
2019-03-04T09:14:27.931Z,14.64
2019-03-04T09:15:28.474Z,14.68
2019-03-04T09:16:27.862Z,14.68
2019-03-04T09:17:28.026Z,14.83
2019-03-04T09:18:27.817Z,14.72
2019-03-04T09:19:27.767Z,14.91
2019-03-04T09:20:27.737Z,14.73
2019-03-04T09:21:27.704Z,14.83
2019-03-04T09:22:27.661Z,14.80
2019-03-04T09:23:27.645Z,14.83
2019-03-04T09:24:27.614Z,14.92
2019-03-04T09:25:30.657Z,14.99
2019-03-04T09:26:27.559Z,14.89
2019-03-04T09:27:27.493Z,14.96
2019-03-04T09:28:27.458Z,15.01
2019-03-04T09:29:27.436Z,15.09
2019-03-04T09:30:27.402Z,15.27
2019-03-04T09:31:27.398Z,15.31
2019-03-04T09:32:27.344Z,15.41
2019-03-04T09:33:27.302Z,15.41
2019-03-04T09:34:27.270Z,15.46
2019-03-04T09:35:27.227Z,15.57
2019-03-04T09:36:27.263Z,15.56
2019-03-04T09:37:27.231Z,15.51
2019-03-04T09:38:27.147Z,15.57
2019-03-04T09:39:27.103Z,15.68
2019-03-04T09:40:27.065Z,15.83
2019-03-04T09:41:27.022Z,15.90
2019-03-04T09:42:26.991Z,15.97
2019-03-04T09:43:27.032Z,16.04
2019-03-04T09:44:26.937Z,15.92
2019-03-04T09:45:26.930Z,15.93
2019-03-04T09:46:26.882Z,15.89
2019-03-04T09:47:26.832Z,15.78
2019-03-04T09:48:26.817Z,16.68
2019-03-04T09:49:26.760Z,17.51
2019-03-04T09:50:26.730Z,16.91
2019-03-04T09:51:26.709Z,16.79
2019-03-04T09:52:26.674Z,17.75
2019-03-04T09:53:26.678Z,18.42
2019-03-04T09:54:26.613Z,18.72
2019-03-04T09:55:26.582Z,18.21
2019-03-04T09:56:26.564Z,17.49
2019-03-04T09:57:26.524Z,17.79
2019-03-04T09:58:26.502Z,18.47
2019-03-04T09:59:26.464Z,18.41
2019-03-04T10:00:26.445Z,18.54
2019-03-04T10:01:26.401Z,18.37
2019-03-04T10:02:26.380Z,18.33
2019-03-04T10:03:26.357Z,18.51
2019-03-04T10:04:26.341Z,18.48
2019-03-04T10:05:26.285Z,19.08
2019-03-04T10:06:26.270Z,19.26
2019-03-04T10:07:26.235Z,19.10
2019-03-04T10:08:32.855Z,18.75
2019-03-04T10:09:26.181Z,18.41
2019-03-04T10:10:26.262Z,17.49
2019-03-04T10:11:26.118Z,17.40
2019-03-04T10:12:26.092Z,17.84
2019-03-04T10:13:26.078Z,16.75
2019-03-04T10:14:26.062Z,16.28
2019-03-04T10:15:26.045Z,16.00
2019-03-04T10:16:25.987Z,15.87
2019-03-04T10:17:26.011Z,16.17
2019-03-04T10:18:25.953Z,16.01
2019-03-04T10:19:25.917Z,15.84
2019-03-04T10:20:25.897Z,16.01
2019-03-04T10:21:25.863Z,16.45
2019-03-04T10:22:25.869Z,16.49
2019-03-04T10:23:25.897Z,16.23
2019-03-04T10:24:25.781Z,16.14
2019-03-04T10:25:25.763Z,15.94
2019-03-04T10:26:25.736Z,15.96
2019-03-04T10:27:25.712Z,16.27
2019-03-04T10:28:25.674Z,16.38
2019-03-04T10:29:25.675Z,17.31
2019-03-04T10:30:25.614Z,17.34
2019-03-04T10:31:25.622Z,17.06
2019-03-04T10:32:25.622Z,16.70
2019-03-04T10:33:25.527Z,16.56
2019-03-04T10:34:25.513Z,16.52
2019-03-04T10:35:25.474Z,16.52
2019-03-04T10:36:25.444Z,16.45
2019-03-04T10:37:25.424Z,16.96
2019-03-04T10:38:25.393Z,18.00
2019-03-04T10:39:25.364Z,18.95
2019-03-04T10:40:25.420Z,19.61
2019-03-04T10:41:25.303Z,19.54
2019-03-04T10:42:25.285Z,19.69
2019-03-04T10:43:25.282Z,19.94
2019-03-04T10:44:25.241Z,20.35
2019-03-04T10:45:25.186Z,20.18
2019-03-04T10:46:25.170Z,19.96
2019-03-04T10:47:25.141Z,20.11
2019-03-04T10:48:25.124Z,18.90
2019-03-04T10:49:25.111Z,19.04
2019-03-04T10:50:25.062Z,18.84
2019-03-04T10:51:25.034Z,19.10
2019-03-04T10:52:25.029Z,18.52
2019-03-04T10:53:24.985Z,17.82
2019-03-04T10:54:24.967Z,17.96
2019-03-04T10:55:24.946Z,18.42
2019-03-04T10:56:24.910Z,18.36
2019-03-04T10:57:24.875Z,17.93
2019-03-04T10:58:24.858Z,17.52
2019-03-04T10:59:24.836Z,18.02
2019-03-04T11:00:24.803Z,18.45
2019-03-04T11:01:30.469Z,18.00
2019-03-04T11:02:24.802Z,17.74
2019-03-04T11:03:24.726Z,17.37
2019-03-04T11:04:24.788Z,17.15
2019-03-04T11:05:24.693Z,16.71
2019-03-04T11:06:24.655Z,16.45
2019-03-04T11:07:24.632Z,16.07
2019-03-04T11:08:24.617Z,16.01
2019-03-04T11:09:24.566Z,15.89
2019-03-04T11:10:24.574Z,15.94
2019-03-04T11:11:29.930Z,16.15
2019-03-04T11:12:24.508Z,16.28
2019-03-04T11:13:24.564Z,16.04
2019-03-04T11:14:24.460Z,15.83
2019-03-04T11:15:24.416Z,15.59
2019-03-04T11:16:24.431Z,15.71
2019-03-04T11:17:24.346Z,15.64
2019-03-04T11:18:24.341Z,15.49
2019-03-04T11:19:24.307Z,15.09
2019-03-04T11:20:24.303Z,14.51
2019-03-04T11:21:24.289Z,13.99
2019-03-04T11:22:24.215Z,13.66
2019-03-04T11:23:24.180Z,13.42
2019-03-04T11:24:24.150Z,13.39
2019-03-04T11:25:24.133Z,13.57
2019-03-04T11:26:24.101Z,14.09
2019-03-04T11:27:24.058Z,14.24
2019-03-04T11:28:24.034Z,14.42
2019-03-04T11:29:24.000Z,14.57
2019-03-04T11:30:24.003Z,15.02
2019-03-04T11:31:23.937Z,15.27
2019-03-04T11:32:23.894Z,15.57
2019-03-04T11:33:23.864Z,16.09
2019-03-04T11:34:23.851Z,16.48
2019-03-04T11:35:23.823Z,16.56
2019-03-04T11:36:23.991Z,16.43
2019-03-04T11:37:23.762Z,16.78
2019-03-04T11:38:23.755Z,17.26
2019-03-04T11:39:23.886Z,16.71
2019-03-04T11:40:23.766Z,16.56
2019-03-04T11:41:23.652Z,16.70
2019-03-04T11:42:23.591Z,16.43
2019-03-04T11:43:23.607Z,15.74
2019-03-04T11:44:23.607Z,15.59
2019-03-04T11:45:23.515Z,15.41
2019-03-04T11:46:23.502Z,15.13
2019-03-04T11:47:23.474Z,15.16
2019-03-04T11:48:23.443Z,15.09
2019-03-04T11:49:23.392Z,15.27
2019-03-04T11:50:23.396Z,15.27
2019-03-04T11:51:23.338Z,15.23
2019-03-04T11:52:23.324Z,15.32
2019-03-04T11:53:23.260Z,15.27
2019-03-04T11:54:23.240Z,14.92
2019-03-04T11:55:23.225Z,14.99
2019-03-04T11:56:23.179Z,15.11
2019-03-04T11:57:23.150Z,14.98
2019-03-04T11:58:23.108Z,14.83
2019-03-04T11:59:23.108Z,14.89
2019-03-04T12:00:23.065Z,14.65
2019-03-04T12:01:23.028Z,14.70
2019-03-04T12:02:23.015Z,14.52
2019-03-04T12:03:22.970Z,14.65
2019-03-04T12:04:22.920Z,14.72
2019-03-04T12:05:22.927Z,14.61
2019-03-04T12:06:22.888Z,14.22
2019-03-04T12:07:22.847Z,14.33
2019-03-04T12:08:22.945Z,14.36
2019-03-04T12:09:22.775Z,14.40
2019-03-04T12:10:22.775Z,14.20
2019-03-04T12:11:22.731Z,14.29
2019-03-04T12:12:22.678Z,14.37
2019-03-04T12:13:22.650Z,14.43
2019-03-04T12:14:22.634Z,14.36
2019-03-04T12:15:22.596Z,14.27
2019-03-04T12:16:22.545Z,14.14
2019-03-04T12:17:22.505Z,14.07
2019-03-04T12:18:22.495Z,14.27
2019-03-04T12:19:22.452Z,14.29
2019-03-04T12:20:22.429Z,14.39
2019-03-04T12:21:22.406Z,14.28
2019-03-04T12:22:22.382Z,14.43
2019-03-04T12:23:22.323Z,14.33
2019-03-04T12:24:22.287Z,14.25
2019-03-04T12:25:22.248Z,14.09
2019-03-04T12:26:22.210Z,14.07
2019-03-04T12:27:22.232Z,13.96
2019-03-04T12:28:22.149Z,13.88
2019-03-04T12:29:22.130Z,13.89
2019-03-04T12:30:22.095Z,13.95
2019-03-04T12:31:22.056Z,13.95
2019-03-04T12:32:22.041Z,13.87
2019-03-04T12:33:22.002Z,13.91
2019-03-04T12:34:24.848Z,13.91
2019-03-04T12:35:21.910Z,13.92
2019-03-04T12:36:21.896Z,13.84
2019-03-04T12:37:21.919Z,13.77
2019-03-04T12:38:21.813Z,13.87
2019-03-04T12:39:21.817Z,14.02
2019-03-04T12:40:21.801Z,13.91
2019-03-04T12:41:21.747Z,14.00
2019-03-04T12:42:21.691Z,14.20
2019-03-04T12:43:21.651Z,14.25
2019-03-04T12:44:21.644Z,14.32
2019-03-04T12:45:21.591Z,14.29
2019-03-04T12:46:21.563Z,14.02
2019-03-04T12:47:21.519Z,14.12
2019-03-04T12:48:21.509Z,14.10
2019-03-04T12:49:21.447Z,14.21
2019-03-04T12:50:21.432Z,14.00
2019-03-04T12:51:23.395Z,13.96
2019-03-04T12:52:23.241Z,14.09